Time;durP1;ratioP1;P1;durP2;ratioP2;P2;SDS_P1;SDS_P2;PMS_P1;PMS_P2;Temp;Humidity;BMP_temperature;BMP_pressure;BME280_temperature;BME280_humidity;BME280_pressure;Samples;Min_cycle;Max_cycle;Signal;HPM_P1;HPM_P2
2021/05/28 00:00:19;;;;;;;10.25;7.90;;;;;;;20.28;68.23;100394.78;1752041;78;20940;-70
2021/05/28 00:02:46;;;;;;;10.18;8.73;;;;;;;20.20;68.47;100393.02;1781822;78;21030;-70
2021/05/28 00:05:14;;;;;;;10.48;8.73;;;;;;;20.12;68.83;100395.79;1787198;78;21023;-70
2021/05/28 00:07:41;;;;;;;12.03;8.88;;;;;;;20.03;69.17;100395.06;1777583;78;21222;-70
2021/05/28 00:10:09;;;;;;;11.57;9.03;;;;;;;19.94;69.30;100393.52;1759905;78;21560;-70
2021/05/28 00:12:37;;;;;;;10.08;8.43;;;;;;;19.86;69.46;100402.42;1774471;78;21436;-70
2021/05/28 00:15:11;;;;;;;10.23;8.18;;;;;;;19.83;69.54;100394.78;1779786;78;21656;-70
2021/05/28 00:17:38;;;;;;;10.90;8.18;;;;;;;19.82;69.62;100401.62;1789327;78;21091;-70
2021/05/28 00:20:06;;;;;;;10.45;8.53;;;;;;;19.80;69.73;100400.99;1780599;78;21133;-70
2021/05/28 00:22:34;;;;;;;12.75;9.25;;;;;;;19.77;69.87;100394.20;1778926;78;21644;-70
2021/05/28 00:25:01;;;;;;;14.45;9.00;;;;;;;19.73;70.04;100392.03;1788876;78;21254;-70
2021/05/28 00:27:30;;;;;;;12.55;9.28;;;;;;;19.66;70.33;100383.92;1787025;78;21119;-70
2021/05/28 00:30:00;;;;;;;11.12;8.58;;;;;;;19.58;70.61;100383.48;1784627;78;21145;-70
2021/05/28 00:32:28;;;;;;;11.93;8.65;;;;;;;19.57;70.78;100379.18;1785237;78;21592;-71
2021/05/28 00:34:55;;;;;;;10.45;8.68;;;;;;;19.58;70.64;100382.16;1746577;81;21139;-71
2021/05/28 00:37:22;;;;;;;13.55;9.45;;;;;;;19.59;70.71;100383.00;1748994;80;21089;-70
2021/05/28 00:39:49;;;;;;;12.95;9.48;;;;;;;19.57;70.75;100380.52;1702176;82;21153;-70
2021/05/28 00:42:16;;;;;;;13.78;9.30;;;;;;;19.53;70.92;100383.72;1710580;81;21656;-70
2021/05/28 00:44:43;;;;;;;11.65;9.28;;;;;;;19.49;71.10;100386.75;1742664;80;21141;-70
2021/05/28 00:47:09;;;;;;;11.80;8.93;;;;;;;19.46;71.24;100388.95;1737377;82;21105;-70
2021/05/28 00:49:36;;;;;;;12.33;9.43;;;;;;;19.47;71.30;100378.61;1729860;80;21700;-70
2021/05/28 00:52:04;;;;;;;10.63;7.90;;;;;;;19.51;71.18;100371.89;1742147;80;21038;-70
2021/05/28 00:54:31;;;;;;;12.47;9.28;;;;;;;19.54;71.19;100378.72;1738929;80;21131;-70
2021/05/28 00:56:59;;;;;;;12.60;9.68;;;;;;;19.55;71.12;100376.35;1733284;81;21598;-70
2021/05/28 00:59:26;;;;;;;12.95;9.50;;;;;;;19.51;71.14;100377.23;1732898;81;21091;-71
2021/05/28 01:01:54;;;;;;;11.40;9.33;;;;;;;19.45;71.20;100381.46;1738535;80;21109;-70
2021/05/28 01:04:20;;;;;;;11.30;9.33;;;;;;;19.39;71.40;100384.02;1730369;82;21099;-71
2021/05/28 01:06:47;;;;;;;11.63;9.05;;;;;;;19.39;71.42;100380.84;1701593;82;21971;-70
2021/05/28 01:09:16;;;;;;;12.15;9.05;;;;;;;19.44;71.42;100381.64;1738057;81;21087;-70
2021/05/28 01:11:42;;;;;;;12.65;9.35;;;;;;;19.49;71.25;100376.59;1733471;80;21584;-71
2021/05/28 01:14:09;;;;;;;11.50;9.30;;;;;;;19.48;71.28;100375.77;1737807;81;21169;-71
2021/05/28 01:16:35;;;;;;;11.73;9.05;;;;;;;19.46;71.47;100373.77;1740641;80;21126;-71
2021/05/28 01:19:04;;;;;;;11.60;8.43;;;;;;;19.43;71.57;100372.81;1741435;80;21605;-71
2021/05/28 01:21:32;;;;;;;11.88;9.10;;;;;;;19.39;71.58;100374.17;1706260;81;21153;-71
2021/05/28 01:23:59;;;;;;;11.05;8.00;;;;;;;19.38;71.50;100377.83;1735089;80;21613;-72
2021/05/28 01:26:26;;;;;;;10.90;9.05;;;;;;;19.42;71.32;100374.33;1710509;82;21098;-72
2021/05/28 01:28:53;;;;;;;13.18;10.53;;;;;;;19.42;71.28;100372.48;1737289;81;21142;-71
2021/05/28 01:31:20;;;;;;;11.57;9.33;;;;;;;19.40;71.47;100375.84;1710803;81;21635;-71
2021/05/28 01:33:46;;;;;;;12.45;10.08;;;;;;;19.38;71.64;100373.02;1702264;81;21085;-71
2021/05/28 01:36:13;;;;;;;17.20;10.40;;;;;;;19.33;71.68;100374.06;1739280;80;21137;-71
2021/05/28 01:38:40;;;;;;;12.85;9.55;;;;;;;19.27;71.84;100370.28;1741800;80;21868;-71
2021/05/28 01:41:07;;;;;;;11.53;8.73;;;;;;;19.26;71.88;100376.10;1744927;80;21075;-71
2021/05/28 01:43:35;;;;;;;12.25;9.00;;;;;;;19.30;71.87;100377.42;1742705;80;21201;-71
2021/05/28 01:46:01;;;;;;;11.30;8.85;;;;;;;19.33;71.75;100376.22;1734455;80;21091;-71
2021/05/28 01:48:30;;;;;;;13.10;10.18;;;;;;;19.34;71.89;100374.40;1737499;80;21067;-71
2021/05/28 01:50:56;;;;;;;13.50;10.30;;;;;;;19.33;72.05;100377.55;1740719;81;21068;-71
2021/05/28 01:53:25;;;;;;;12.13;9.50;;;;;;;19.34;72.08;100377.88;1779929;79;21126;-71
2021/05/28 01:55:53;;;;;;;12.28;8.85;;;;;;;19.33;72.01;100371.39;1783138;78;21035;-71
2021/05/28 01:58:23;;;;;;;12.82;8.88;;;;;;;19.33;71.94;100376.73;1767509;80;21131;-71
2021/05/28 02:00:52;;;;;;;12.40;9.33;;;;;;;19.38;71.84;100371.68;1784880;78;21051;-71
2021/05/28 02:03:20;;;;;;;11.75;8.63;;;;;;;19.41;71.93;100380.66;1763400;80;21034;-71
2021/05/28 02:05:50;;;;;;;13.35;9.88;;;;;;;19.41;71.88;100378.81;1777723;78;21070;-64
2021/05/28 02:08:16;;;;;;;12.37;10.48;;;;;;;19.38;71.99;100383.17;1780129;78;21610;-64
2021/05/28 02:10:44;;;;;;;14.20;9.68;;;;;;;19.36;72.24;100382.53;1756947;80;21130;-64
2021/05/28 02:13:11;;;;;;;16.55;10.40;;;;;;;19.34;72.30;100379.22;1774998;78;21055;-64
2021/05/28 02:15:39;;;;;;;11.80;9.08;;;;;;;19.39;72.24;100382.69;1777133;78;21826;-63
2021/05/28 02:18:06;;;;;;;11.10;8.50;;;;;;;19.45;71.87;100373.94;1758020;80;21015;-64
2021/05/28 02:20:34;;;;;;;12.15;9.68;;;;;;;19.44;71.75;100373.12;1761641;80;21047;-64
2021/05/28 02:23:01;;;;;;;12.65;10.40;;;;;;;19.43;71.79;100371.48;1763270;80;21640;-63
2021/05/28 02:25:27;;;;;;;11.88;10.10;;;;;;;19.40;71.82;100368.31;1764628;78;21063;-64
2021/05/28 02:27:54;;;;;;;13.55;10.50;;;;;;;19.36;71.91;100373.70;1788011;78;21087;-64
2021/05/28 02:30:21;;;;;;;12.25;9.23;;;;;;;19.31;71.94;100367.56;1748156;78;21099;-65
2021/05/28 02:32:47;;;;;;;12.73;9.80;;;;;;;19.34;71.81;100360.55;1782212;78;21550;-64
2021/05/28 02:35:16;;;;;;;13.88;9.18;;;;;;;19.38;71.64;100360.49;1776718;78;21091;-64
2021/05/28 02:37:44;;;;;;;11.78;9.40;;;;;;;19.41;71.49;100359.31;1759761;80;21569;-64
2021/05/28 02:40:13;;;;;;;13.55;9.98;;;;;;;19.42;71.67;100359.14;1737958;81;21864;-64
2021/05/28 02:42:39;;;;;;;12.23;9.35;;;;;;;19.39;71.81;100351.48;1780772;78;21172;-64
2021/05/28 02:45:07;;;;;;;11.83;9.63;;;;;;;19.37;71.73;100350.03;1735751;81;22342;-64
2021/05/28 02:47:34;;;;;;;13.05;9.68;;;;;;;19.31;71.62;100350.23;1765895;78;21102;-64
2021/05/28 02:50:00;;;;;;;14.30;9.43;;;;;;;19.27;71.68;100352.95;1786229;80;21165;-64
2021/05/28 02:52:27;;;;;;;13.88;10.30;;;;;;;19.30;71.59;100348.59;1785061;78;21122;-64
2021/05/28 02:54:54;;;;;;;14.00;10.18;;;;;;;19.33;71.52;100346.05;1783604;78;21127;-64
2021/05/28 02:57:20;;;;;;;16.35;10.72;;;;;;;19.33;71.48;100340.72;1782001;78;21608;-64
2021/05/28 02:59:48;;;;;;;15.65;10.43;;;;;;;19.29;71.64;100339.73;1790809;78;21035;-64
2021/05/28 03:02:15;;;;;;;14.78;11.53;;;;;;;19.27;71.84;100344.43;1760360;80;21024;-64
2021/05/28 03:04:41;;;;;;;15.38;11.18;;;;;;;19.25;71.91;100344.30;1785570;78;21437;-64
2021/05/28 03:07:08;;;;;;;14.10;11.05;;;;;;;19.28;72.02;100340.77;1790744;80;21047;-64
2021/05/28 03:09:35;;;;;;;13.68;11.18;;;;;;;19.37;71.77;100341.52;1782481;78;21161;-64
2021/05/28 03:12:01;;;;;;;14.50;10.75;;;;;;;19.40;71.70;100338.97;1790825;78;21118;-64
2021/05/28 03:14:31;;;;;;;14.03;10.43;;;;;;;19.40;71.76;100330.48;1790805;78;21557;-63
2021/05/28 03:16:58;;;;;;;15.53;11.68;;;;;;;19.40;71.77;100332.30;1778711;79;21147;-65
2021/05/28 03:19:32;;;;;;;13.70;10.98;;;;;;;19.37;71.85;100335.36;1783364;78;21078;-64
2021/05/28 03:22:31;;;;;;;12.10;10.28;;;;;;;19.34;72.07;100329.86;1789398;78;21043;-63
2021/05/28 03:24:27;;;;;;;14.13;10.55;;;;;;;19.37;72.04;100332.69;1780507;78;21117;-67
2021/05/28 03:26:54;;;;;;;13.15;10.88;;;;;;;19.42;71.88;100335.64;1790503;79;21088;-64
2021/05/28 03:29:21;;;;;;;13.50;10.90;;;;;;;19.45;71.88;100336.09;1785140;78;21142;-64
2021/05/28 03:31:48;;;;;;;14.55;10.93;;;;;;;19.48;71.85;100341.56;1790874;78;22387;-65
2021/05/28 03:34:14;;;;;;;13.90;9.90;;;;;;;19.45;71.81;100341.44;1775010;78;21127;-63
2021/05/28 03:36:41;;;;;;;12.28;9.78;;;;;;;19.43;71.97;100343.46;1762048;79;21055;-65
2021/05/28 03:39:08;;;;;;;13.13;9.98;;;;;;;19.42;71.97;100347.12;1785016;78;21090;-65
2021/05/28 03:41:35;;;;;;;11.75;9.18;;;;;;;19.46;71.92;100344.92;1794523;78;21133;-64
2021/05/28 03:44:02;;;;;;;13.08;9.93;;;;;;;19.55;71.70;100344.33;1791496;78;21612;-65
2021/05/28 03:46:29;;;;;;;13.05;9.85;;;;;;;19.61;71.53;100347.61;1751262;80;21083;-64
2021/05/28 03:48:57;;;;;;;15.70;12.53;;;;;;;19.63;71.34;100345.58;1761747;80;21053;-65
2021/05/28 03:51:23;;;;;;;17.12;13.80;;;;;;;19.63;71.31;100349.59;1799214;78;21059;-65
2021/05/28 03:53:50;;;;;;;15.70;12.43;;;;;;;19.59;71.49;100351.80;1783043;78;21821;-65
2021/05/28 03:56:16;;;;;;;14.07;12.43;;;;;;;19.56;71.58;100348.16;1788383;78;21070;-65
2021/05/28 03:58:43;;;;;;;14.53;12.10;;;;;;;19.56;71.58;100352.67;1736299;80;21109;-65
2021/05/28 04:01:09;;;;;;;16.82;11.57;;;;;;;19.59;71.55;100349.64;1733951;80;21647;-65
2021/05/28 04:03:38;;;;;;;17.50;13.15;;;;;;;19.62;71.48;100355.95;1743945;80;21067;-65
2021/05/28 04:06:04;;;;;;;16.45;13.35;;;;;;;19.65;71.49;100360.90;1737363;82;21189;-64
2021/05/28 04:08:31;;;;;;;17.70;13.93;;;;;;;19.65;71.56;100361.75;1708358;82;21695;-64
2021/05/28 04:10:58;;;;;;;19.40;13.85;;;;;;;19.65;71.49;100356.89;1736537;80;21027;-64
2021/05/28 04:13:32;;;;;;;16.93;12.63;;;;;;;19.58;71.33;100351.46;1749206;80;21648;-63
2021/05/28 04:16:00;;;;;;;16.10;12.15;;;;;;;19.60;71.51;100352.13;1750981;80;21125;-63
2021/05/28 04:18:27;;;;;;;15.45;11.80;;;;;;;19.70;71.53;100353.17;1733357;81;21134;-63
2021/05/28 04:20:53;;;;;;;14.83;11.45;;;;;;;19.77;71.48;100354.14;1790503;78;21408;-63
2021/05/28 04:23:21;;;;;;;15.83;11.12;;;;;;;19.78;71.57;100353.62;1786551;78;21102;-64
2021/05/28 04:25:48;;;;;;;14.70;12.05;;;;;;;19.78;71.42;100355.79;1773555;78;21122;-64
2021/05/28 04:28:15;;;;;;;14.47;12.25;;;;;;;19.79;71.20;100357.45;1788201;78;22241;-63
2021/05/28 04:30:43;;;;;;;14.50;11.40;;;;;;;19.79;71.24;100361.98;1787449;78;21063;-63
2021/05/28 04:33:10;;;;;;;14.05;10.15;;;;;;;19.83;71.29;100365.41;1789042;78;21098;-63
2021/05/28 04:35:37;;;;;;;12.82;10.10;;;;;;;19.91;71.03;100367.17;1757275;79;21106;-63
2021/05/28 04:38:04;;;;;;;12.78;10.43;;;;;;;19.99;70.66;100371.59;1782035;78;21137;-63
2021/05/28 04:40:31;;;;;;;14.30;11.33;;;;;;;20.03;70.74;100366.20;1789708;78;21089;-64
2021/05/28 04:42:58;;;;;;;14.38;11.83;;;;;;;20.05;70.58;100361.49;1782361;78;21138;-65
2021/05/28 04:45:25;;;;;;;13.98;12.15;;;;;;;20.06;70.31;100366.34;1763219;79;21158;-60
2021/05/28 04:47:51;;;;;;;14.53;11.63;;;;;;;20.05;70.55;100364.16;1799937;78;21069;-61
2021/05/28 04:50:17;;;;;;;14.35;10.38;;;;;;;20.11;70.41;100367.95;1762446;79;21680;-62
2021/05/28 04:52:45;;;;;;;17.10;12.58;;;;;;;20.17;70.39;100368.04;1780803;78;21166;-61
2021/05/28 04:55:13;;;;;;;15.43;11.55;;;;;;;20.21;70.40;100366.64;1762046;80;21129;-62
2021/05/28 04:57:40;;;;;;;14.78;10.95;;;;;;;20.20;70.37;100366.82;1778626;78;21137;-61
2021/05/28 05:00:09;;;;;;;15.35;10.45;;;;;;;20.17;70.41;100365.37;1780112;78;21097;-65
2021/05/28 05:02:36;;;;;;;14.47;11.97;;;;;;;20.15;70.17;100359.36;1789826;78;21334;-65
2021/05/28 05:05:04;;;;;;;15.25;11.20;;;;;;;20.14;69.94;100360.39;1783994;78;21087;-63
2021/05/28 05:07:33;;;;;;;13.32;11.00;;;;;;;20.21;69.69;100364.48;1790273;78;21186;-65
2021/05/28 05:10:00;;;;;;;14.20;10.25;;;;;;;20.30;69.39;100359.34;1783595;78;21157;-63
2021/05/28 05:12:26;;;;;;;12.25;10.05;;;;;;;20.35;69.22;100366.80;1753515;80;21620;-66
2021/05/28 05:14:53;;;;;;;14.00;11.05;;;;;;;20.35;69.25;100368.95;1785357;79;21122;-59
2021/05/28 05:17:20;;;;;;;15.30;12.13;;;;;;;20.35;69.46;100366.28;1785541;78;21616;-62
2021/05/28 05:19:46;;;;;;;14.78;10.82;;;;;;;20.35;69.55;100366.80;1786531;78;21221;-62
2021/05/28 05:22:13;;;;;;;12.47;10.00;;;;;;;20.31;69.54;100366.36;1788735;78;22447;-62
2021/05/28 05:24:39;;;;;;;12.35;9.53;;;;;;;20.28;69.43;100361.89;1785286;78;21133;-61
2021/05/28 05:27:07;;;;;;;11.97;9.10;;;;;;;20.27;69.40;100363.72;1777864;78;21169;-71
2021/05/28 05:29:36;;;;;;;11.00;8.55;;;;;;;20.26;69.31;100365.23;1787789;78;21097;-70
2021/05/28 05:32:03;;;;;;;11.73;9.58;;;;;;;20.20;69.27;100359.63;1778570;78;21142;-70
2021/05/28 05:34:31;;;;;;;13.08;9.85;;;;;;;20.14;69.36;100352.86;1784539;78;21089;-68
2021/05/28 05:37:02;;;;;;;11.78;8.60;;;;;;;20.08;69.59;100354.45;1777816;78;21548;-67
2021/05/28 05:39:28;;;;;;;10.38;7.85;;;;;;;20.03;69.73;100352.33;1725172;81;21103;-68
2021/05/28 05:41:55;;;;;;;11.97;9.63;;;;;;;20.03;69.72;100352.84;1717342;81;21154;-68
2021/05/28 05:44:21;;;;;;;11.63;8.28;;;;;;;20.07;69.87;100352.78;1721267;81;21102;-68
2021/05/28 05:46:48;;;;;;;11.68;8.73;;;;;;;20.11;69.79;100355.42;1731057;81;22330;-68
2021/05/28 05:49:15;;;;;;;12.85;9.58;;;;;;;20.14;69.54;100354.20;1736759;80;21090;-68
2021/05/28 05:51:41;;;;;;;11.78;9.50;;;;;;;20.10;69.46;100355.60;1774117;78;21117;-67
2021/05/28 05:54:08;;;;;;;12.50;10.03;;;;;;;20.07;69.79;100351.45;1778450;78;21124;-68
2021/05/28 05:56:34;;;;;;;15.00;11.30;;;;;;;20.08;69.83;100354.97;1781694;78;21127;-69
2021/05/28 05:59:00;;;;;;;12.85;9.28;;;;;;;20.12;69.97;100349.56;1729332;81;21713;-68
2021/05/28 06:01:27;;;;;;;12.80;9.85;;;;;;;20.20;69.94;100348.13;1773333;78;21126;-70
2021/05/28 06:03:54;;;;;;;12.40;10.55;;;;;;;20.30;69.97;100347.83;1772228;78;21181;-67
2021/05/28 06:06:21;;;;;;;12.90;10.58;;;;;;;20.44;69.97;100347.47;1760558;78;21078;-69
2021/05/28 06:08:48;;;;;;;15.45;12.33;;;;;;;20.55;69.78;100347.80;1775169;78;21143;-72
2021/05/28 06:11:16;;;;;;;13.45;11.03;;;;;;;20.62;69.32;100348.40;1779764;78;21086;-70
2021/05/28 06:13:42;;;;;;;15.95;10.15;;;;;;;20.62;68.95;100347.06;1777512;78;21082;-69
2021/05/28 06:16:09;;;;;;;12.47;10.78;;;;;;;20.66;68.80;100350.54;1773902;78;21138;-69
2021/05/28 06:18:37;;;;;;;15.60;11.35;;;;;;;20.77;68.60;100347.86;1778830;78;21644;-70
2021/05/28 06:21:04;;;;;;;16.77;11.57;;;;;;;20.85;68.37;100345.58;1758767;80;21208;-68
2021/05/28 06:23:30;;;;;;;13.90;10.45;;;;;;;20.89;68.12;100350.33;1775749;78;21609;-63
2021/05/28 06:25:57;;;;;;;14.98;11.80;;;;;;;20.96;68.12;100343.22;1774817;78;21174;-63
2021/05/28 06:28:25;;;;;;;15.30;12.03;;;;;;;21.05;68.05;100351.11;1778388;78;21361;-59
2021/05/28 06:30:51;;;;;;;17.10;10.80;;;;;;;21.01;67.41;100354.66;1781273;78;21146;-66
2021/05/28 06:33:19;;;;;;;16.37;11.38;;;;;;;21.03;67.15;100347.78;1755582;80;21039;-65
2021/05/28 06:35:45;;;;;;;15.08;11.12;;;;;;;21.13;67.48;100346.94;1773637;78;21139;-65
2021/05/28 06:38:12;;;;;;;15.88;11.18;;;;;;;21.28;66.69;100345.03;1777862;78;21057;-68
2021/05/28 06:40:39;;;;;;;19.02;10.23;;;;;;;21.42;66.48;100345.13;1777981;78;21051;-69
2021/05/28 06:43:07;;;;;;;13.28;9.90;;;;;;;21.45;65.93;100343.38;1776936;78;21134;-67
2021/05/28 06:45:35;;;;;;;15.90;11.43;;;;;;;21.46;66.04;100339.17;1779459;78;21838;-68
2021/05/28 06:48:05;;;;;;;11.70;9.78;;;;;;;21.45;66.21;100342.89;1758175;79;21572;-70
2021/05/28 06:50:32;;;;;;;13.45;10.03;;;;;;;21.46;66.14;100341.03;1781487;78;21027;-71
2021/05/28 06:52:59;;;;;;;11.83;9.05;;;;;;;21.46;65.38;100335.67;1780346;78;21105;-69
2021/05/28 06:55:26;;;;;;;12.80;9.18;;;;;;;21.40;64.46;100336.45;1780703;78;21456;-69
2021/05/28 06:57:53;;;;;;;9.55;7.47;;;;;;;21.36;64.88;100329.84;1784276;78;21201;-67
2021/05/28 07:00:22;;;;;;;9.83;7.28;;;;;;;21.36;64.55;100332.00;1777746;78;21138;-68
2021/05/28 07:02:49;;;;;;;11.25;7.58;;;;;;;21.34;64.55;100327.36;1777432;78;21125;-70
2021/05/28 07:05:15;;;;;;;12.40;9.00;;;;;;;21.34;64.64;100330.85;1784968;78;21067;-68
2021/05/28 07:07:42;;;;;;;12.13;9.25;;;;;;;21.38;64.26;100325.11;1781379;78;21747;-67
2021/05/28 07:10:12;;;;;;;11.30;8.70;;;;;;;21.41;64.06;100334.91;1783170;78;21463;-68
2021/05/28 07:12:41;;;;;;;10.40;7.92;;;;;;;21.43;63.99;100334.72;1781699;78;21102;-72
2021/05/28 07:15:08;;;;;;;12.75;8.30;;;;;;;21.44;64.31;100330.52;1763778;79;21695;-74
2021/05/28 07:17:35;;;;;;;9.48;7.65;;;;;;;21.55;64.03;100331.84;1777401;78;21099;-69
2021/05/28 07:20:03;;;;;;;10.50;8.50;;;;;;;21.68;63.56;100332.45;1780553;78;21067;-67
2021/05/28 07:22:30;;;;;;;11.12;8.45;;;;;;;21.71;62.68;100328.04;1775481;78;21141;-71
2021/05/28 07:24:58;;;;;;;11.40;7.90;;;;;;;21.74;63.06;100332.16;1783561;78;21146;-68
2021/05/28 07:27:26;;;;;;;11.28;8.65;;;;;;;21.77;62.56;100327.75;1780872;78;21138;-70
2021/05/28 07:29:54;;;;;;;11.75;9.15;;;;;;;21.79;62.96;100333.76;1727936;81;21102;-70
2021/05/28 07:32:21;;;;;;;12.88;9.68;;;;;;;21.82;62.97;100327.48;1728881;80;21113;-70
2021/05/28 07:34:48;;;;;;;13.32;11.00;;;;;;;21.89;62.15;100328.86;1733181;80;21638;-72
2021/05/28 07:37:14;;;;;;;11.33;9.48;;;;;;;21.92;61.46;100323.08;1734018;80;21125;-71
2021/05/28 07:39:42;;;;;;;13.50;10.30;;;;;;;21.99;61.66;100326.64;1710800;80;21101;-73
2021/05/28 07:42:09;;;;;;;13.20;11.03;;;;;;;22.13;61.26;100330.20;1735080;80;21038;-69
2021/05/28 07:44:35;;;;;;;10.78;8.98;;;;;;;22.23;60.82;100326.62;1709630;81;21083;-67
2021/05/28 07:47:02;;;;;;;12.80;9.03;;;;;;;22.30;61.26;100322.66;1747878;80;21470;-69
2021/05/28 07:49:28;;;;;;;11.73;9.98;;;;;;;22.42;60.80;100326.92;1742382;80;21150;-69
2021/05/28 07:51:57;;;;;;;14.00;9.50;;;;;;;22.41;61.11;100319.40;1725727;81;21019;-68
2021/05/28 07:54:24;;;;;;;13.08;11.22;;;;;;;22.43;61.34;100316.00;1723072;81;21118;-68
2021/05/28 07:56:53;;;;;;;12.45;9.85;;;;;;;22.40;61.32;100316.92;1777000;78;21073;-68
2021/05/28 07:59:20;;;;;;;11.30;9.75;;;;;;;22.39;61.30;100314.77;1774528;78;21090;-65
2021/05/28 08:01:46;;;;;;;16.52;11.50;;;;;;;22.47;61.39;100306.21;1722019;81;21126;-66
2021/05/28 08:04:12;;;;;;;16.37;11.43;;;;;;;22.54;60.67;100309.72;1700889;81;21839;-72
2021/05/28 08:06:39;;;;;;;14.80;10.93;;;;;;;22.56;61.27;100306.31;1785810;78;21047;-67
2021/05/28 08:09:06;;;;;;;13.32;11.28;;;;;;;22.60;61.42;100299.02;1762573;78;21150;-67
2021/05/28 08:11:33;;;;;;;14.13;11.18;;;;;;;22.69;61.29;100298.81;1788897;78;21147;-66
2021/05/28 08:13:59;;;;;;;13.30;11.15;;;;;;;22.78;61.13;100295.73;1786419;78;21220;-63
2021/05/28 08:16:25;;;;;;;15.58;11.28;;;;;;;22.84;59.67;100297.29;1758007;80;21666;-64
2021/05/28 08:18:53;;;;;;;14.38;10.88;;;;;;;22.84;60.13;100297.29;1763189;80;21038;-69
2021/05/28 08:21:19;;;;;;;15.55;11.85;;;;;;;22.81;59.41;100294.48;1779933;78;21142;-68
2021/05/28 08:23:47;;;;;;;11.63;9.93;;;;;;;22.81;58.57;100289.13;1775184;78;21466;-67
2021/05/28 08:26:14;;;;;;;14.47;10.65;;;;;;;22.80;59.22;100286.15;1722601;81;21152;-68
2021/05/28 08:28:40;;;;;;;14.30;10.05;;;;;;;22.89;59.40;100280.06;1696457;82;21082;-67
2021/05/28 08:31:07;;;;;;;11.25;7.92;;;;;;;23.04;59.35;100284.69;1723961;81;21062;-68
2021/05/28 08:33:35;;;;;;;12.00;9.93;;;;;;;23.18;59.17;100279.67;1779822;78;21137;-68
2021/05/28 08:36:02;;;;;;;15.80;12.30;;;;;;;23.26;58.59;100273.77;1788119;78;21844;-71
2021/05/28 08:38:31;;;;;;;12.47;10.38;;;;;;;23.26;58.52;100272.42;1728574;80;21141;-66
2021/05/28 08:40:57;;;;;;;12.45;10.78;;;;;;;23.22;58.60;100272.02;1705758;81;21086;-63
2021/05/28 08:43:25;;;;;;;13.53;10.82;;;;;;;23.22;58.11;100268.48;1733906;81;21647;-70
2021/05/28 08:45:52;;;;;;;11.97;9.65;;;;;;;23.22;57.29;100264.46;1729373;81;21063;-69
2021/05/28 08:48:19;;;;;;;13.48;10.80;;;;;;;23.19;57.64;100261.70;1733684;80;21055;-70
2021/05/28 08:50:48;;;;;;;11.15;9.40;;;;;;;23.22;58.29;100263.12;1734544;80;21189;-70
2021/05/28 08:53:17;;;;;;;11.33;9.13;;;;;;;23.30;58.04;100266.93;1711706;81;21126;-71
2021/05/28 08:55:45;;;;;;;11.80;8.95;;;;;;;23.39;57.44;100260.84;1737647;80;21191;-71
2021/05/28 08:58:14;;;;;;;14.93;9.43;;;;;;;23.46;57.44;100262.45;1705920;82;21110;-71
2021/05/28 09:00:42;;;;;;;12.30;9.63;;;;;;;23.52;56.79;100257.59;1710742;82;21117;-72
2021/05/28 09:03:33;;;;;;;12.23;10.30;;;;;;;23.59;56.55;100249.52;1736043;80;21459;-70
2021/05/28 09:06:02;;;;;;;13.50;10.43;;;;;;;23.58;55.93;100252.41;1736592;80;21059;-71
2021/05/28 09:08:34;;;;;;;11.05;9.83;;;;;;;23.49;55.53;100259.36;1734942;80;21139;-72
2021/05/28 09:11:08;;;;;;;11.18;9.75;;;;;;;23.40;56.02;100258.45;1735206;81;21627;-72
2021/05/28 09:13:45;;;;;;;11.57;9.50;;;;;;;23.37;56.18;100250.31;1735994;82;21155;-70
2021/05/28 09:16:20;;;;;;;9.80;8.73;;;;;;;23.43;56.75;100254.00;1730615;80;21054;-72
2021/05/28 09:18:58;;;;;;;11.53;10.23;;;;;;;23.45;55.84;100254.12;1733879;81;20999;-71
2021/05/28 09:21:34;;;;;;;11.22;9.88;;;;;;;23.47;55.76;100248.01;1736170;80;21617;-72
2021/05/28 09:24:05;;;;;;;11.28;9.48;;;;;;;23.45;55.64;100247.41;1733049;81;21067;-73
2021/05/28 09:26:32;;;;;;;11.60;9.68;;;;;;;23.44;55.53;100243.58;1733144;80;22009;-71
2021/05/28 09:29:01;;;;;;;11.57;9.58;;;;;;;23.50;55.37;100240.87;1705413;81;21110;-72
2021/05/28 09:31:32;;;;;;;11.80;10.43;;;;;;;23.51;55.86;100241.17;1721627;80;21622;-61
2021/05/28 09:33:58;;;;;;;13.88;10.18;;;;;;;23.59;56.40;100239.28;1738124;80;21094;-72
2021/05/28 09:36:26;;;;;;;11.83;10.08;;;;;;;23.67;56.20;100237.70;1783465;78;21114;-73
2021/05/28 09:39:10;;;;;;;11.00;9.90;;;;;;;23.70;56.11;100236.78;1780545;78;21110;-71
2021/05/28 09:41:49;;;;;;;10.32;8.28;;;;;;;23.69;56.48;100233.78;1781794;78;22331;-71
2021/05/28 09:44:27;;;;;;;11.08;8.30;;;;;;;23.74;56.17;100233.96;1784698;78;21118;-68
2021/05/28 09:47:11;;;;;;;12.50;10.05;;;;;;;23.80;55.34;100231.45;1784991;78;21103;-71
2021/05/28 09:49:48;;;;;;;10.88;8.88;;;;;;;23.88;55.00;100228.56;1781314;78;21663;-72
2021/05/28 09:52:21;;;;;;;10.95;9.50;;;;;;;23.90;56.13;100226.48;1784631;78;21181;-72
2021/05/28 09:54:58;;;;;;;10.72;9.63;;;;;;;24.00;55.85;100220.11;1713232;81;21075;-70
2021/05/28 09:57:43;;;;;;;11.22;10.08;;;;;;;24.15;54.93;100223.04;1730797;80;20943;-66
2021/05/28 10:00:31;;;;;;;9.95;8.88;;;;;;;24.22;54.83;100223.28;1785031;78;20928;-72
2021/05/28 10:03:22;;;;;;;9.38;8.28;;;;;;;24.33;54.32;100216.41;1789271;78;21543;-72
2021/05/28 10:05:55;;;;;;;10.78;9.13;;;;;;;24.40;54.15;100219.86;1768884;78;21686;-71
2021/05/28 10:08:23;;;;;;;12.18;9.43;;;;;;;24.45;53.65;100213.84;1785700;78;21163;-70
2021/05/28 10:10:52;;;;;;;9.85;8.20;;;;;;;24.48;53.74;100212.06;1763760;78;21628;-69
2021/05/28 10:13:22;;;;;;;9.30;7.87;;;;;;;24.52;53.60;100205.19;1782582;78;21126;-71
2021/05/28 10:15:51;;;;;;;9.65;7.17;;;;;;;24.65;52.11;100201.08;1785057;78;21120;-62
2021/05/28 10:18:19;;;;;;;8.63;7.72;;;;;;;24.74;52.28;100199.45;1747775;80;21071;-72
2021/05/28 10:20:50;;;;;;;12.18;8.40;;;;;;;24.91;52.93;100201.05;1754720;80;21040;-69
2021/05/28 10:23:17;;;;;;;10.25;9.15;;;;;;;25.13;52.49;100193.37;1719935;80;21621;-71
2021/05/28 10:25:46;;;;;;;9.10;7.90;;;;;;;25.30;51.81;100193.13;1724168;81;21121;-72
2021/05/28 10:28:20;;;;;;;9.10;8.15;;;;;;;25.38;50.30;100185.25;1784407;78;21415;-70
2021/05/28 10:30:49;;;;;;;12.13;8.83;;;;;;;25.30;50.89;100191.78;1755811;78;21059;-70
2021/05/28 10:33:29;;;;;;;9.45;8.50;;;;;;;25.21;51.16;100189.05;1788210;78;21162;-73
2021/05/28 10:36:02;;;;;;;10.03;8.90;;;;;;;25.10;51.28;100186.59;1780046;78;21079;-75
2021/05/28 10:38:46;;;;;;;10.93;9.35;;;;;;;25.00;51.21;100187.62;1781755;78;21134;-72
2021/05/28 10:41:19;;;;;;;11.10;9.88;;;;;;;24.97;51.58;100184.03;1777880;78;21659;-72
2021/05/28 10:43:54;;;;;;;10.80;9.70;;;;;;;24.92;51.58;100173.92;1784101;78;21153;-70
2021/05/28 10:46:21;;;;;;;12.10;10.35;;;;;;;24.85;51.78;100176.69;1786183;78;21624;-74
2021/05/28 10:49:00;;;;;;;10.68;9.23;;;;;;;24.87;51.78;100172.42;1784833;78;21297;-75
2021/05/28 10:51:37;;;;;;;10.90;9.65;;;;;;;24.83;51.46;100169.86;1717604;81;21224;-67
2021/05/28 10:54:09;;;;;;;11.95;10.72;;;;;;;24.77;51.17;100161.35;1706824;81;21106;-72
2021/05/28 10:56:42;;;;;;;11.28;10.18;;;;;;;24.78;52.28;100157.59;1729199;81;21126;-72
2021/05/28 10:59:17;;;;;;;10.78;9.68;;;;;;;24.85;52.66;100153.00;1752313;78;21130;-71
2021/05/28 11:01:55;;;;;;;12.47;10.18;;;;;;;24.90;52.09;100153.15;1784701;78;21110;-71
2021/05/28 11:04:31;;;;;;;12.80;9.45;;;;;;;24.87;51.37;100152.24;1773052;78;21462;-72
2021/05/28 11:07:03;;;;;;;9.05;7.95;;;;;;;24.89;52.09;100146.11;1737090;78;22473;-71
2021/05/28 11:09:47;;;;;;;12.05;10.75;;;;;;;25.01;51.68;100141.63;1763353;80;21094;-70
2021/05/28 11:12:38;;;;;;;10.50;9.40;;;;;;;25.10;51.46;100132.75;1783348;78;21775;-70
2021/05/28 11:15:10;;;;;;;14.33;10.85;;;;;;;25.17;50.80;100131.33;1742808;80;21159;-72
2021/05/28 11:17:53;;;;;;;11.08;9.93;;;;;;;25.24;51.06;100126.67;1725523;81;21170;-70
2021/05/28 11:20:29;;;;;;;10.32;8.88;;;;;;;25.21;50.58;100115.81;1680505;81;21138;-71